Time;durP1;ratioP1;P1;durP2;ratioP2;P2;SDS_P1;SDS_P2;PMS_P1;PMS_P2;Temp;Humidity;BMP_temperature;BMP_pressure;BME280_temperature;BME280_humidity;BME280_pressure;Samples;Min_cycle;Max_cycle;Signal;HPM_P1;HPM_P2
2022/04/06 00:01:52;;;;;;;10.93;1.43;;;10.40;99.90;9.90;100394.00;;;;5114981;28;20195;-64
2022/04/06 00:04:20;;;;;;;9.40;2.67;;;10.40;99.90;10.10;100394.00;;;;5115424;28;20189;-64
2022/04/06 00:06:46;;;;;;;5.00;2.83;;;10.60;99.90;10.10;100392.00;;;;5098101;28;20544;-64
2022/04/06 00:09:12;;;;;;;2.40;1.27;;;10.60;99.90;9.80;100392.00;;;;5113695;28;20197;-64
2022/04/06 00:11:37;;;;;;;45.00;3.90;;;10.50;99.90;9.80;100376.00;;;;5114668;28;20198;-64
2022/04/06 00:14:04;;;;;;;1.33;1.23;;;10.40;99.90;10.00;100382.00;;;;5097066;28;20192;-64
2022/04/06 00:16:30;;;;;;;1.47;0.97;;;10.50;99.90;10.70;100377.00;;;;5113453;28;20216;-65
2022/04/06 00:18:58;;;;;;;0.60;0.60;;;10.80;99.90;10.30;100338.00;;;;5114638;28;20241;-64
2022/04/06 00:21:25;;;;;;;0.90;0.90;;;10.80;99.90;9.90;100360.00;;;;5115073;28;20179;-64
2022/04/06 00:23:51;;;;;;;4.53;1.10;;;10.60;99.90;10.00;100374.00;;;;5114889;28;20266;-64
2022/04/06 00:26:22;;;;;;;2.83;1.43;;;10.50;99.90;10.10;100354.00;;;;5113599;28;20278;-64
2022/04/06 00:28:48;;;;;;;0.50;0.50;;;10.60;99.90;10.50;100335.00;;;;5096764;28;20177;-64
2022/04/06 00:31:14;;;;;;;0.97;0.97;;;10.70;99.90;9.90;100356.00;;;;5114320;28;20257;-64
2022/04/06 00:33:41;;;;;;;0.70;0.70;;;10.60;99.90;10.10;100361.00;;;;5095328;28;20667;-65
2022/04/06 00:36:09;;;;;;;0.50;0.50;;;10.60;99.90;10.00;100353.00;;;;5112778;28;20161;-65
2022/04/06 00:38:35;;;;;;;0.40;0.40;;;10.50;99.90;10.60;100346.00;;;;5114074;28;20180;-64
2022/04/06 00:41:04;;;;;;;1.20;1.10;;;10.70;99.90;10.10;100343.00;;;;5114444;28;20674;-65
2022/04/06 00:43:33;;;;;;;2.73;1.63;;;10.70;99.90;10.00;100340.00;;;;5114066;28;20180;-64
2022/04/06 00:46:02;;;;;;;1.20;1.10;;;10.50;99.90;10.00;100344.00;;;;5113109;28;20686;-65
2022/04/06 00:48:33;;;;;;;1.00;1.00;;;10.50;99.90;10.00;100341.00;;;;5114155;28;20217;-65
2022/04/06 00:50:59;;;;;;;0.40;0.40;;;10.60;99.90;10.30;100325.00;;;;5115446;28;20179;-65
2022/04/06 00:53:25;;;;;;;0.40;0.40;;;10.70;99.90;9.80;100297.00;;;;5097150;28;20567;-65
2022/04/06 00:55:54;;;;;;;0.60;0.60;;;10.50;99.90;10.10;100325.00;;;;5094691;28;20186;-65
2022/04/06 00:58:20;;;;;;;1.60;1.50;;;10.60;99.90;10.20;100292.00;;;;5097041;28;20717;-62
2022/04/06 01:00:46;;;;;;;0.40;0.40;;;10.60;99.90;10.00;100325.00;;;;5114272;28;20170;-62
2022/04/06 01:03:12;;;;;;;1.17;1.07;;;10.50;99.90;9.80;100323.00;;;;5113932;28;20545;-62
2022/04/06 01:05:40;;;;;;;4.83;1.37;;;10.50;99.90;9.60;100293.00;;;;5113527;28;20262;-62
2022/04/06 01:08:07;;;;;;;1.07;1.07;;;10.30;99.90;9.80;100288.00;;;;5114250;28;20206;-66
2022/04/06 01:10:33;;;;;;;0.60;0.60;;;10.40;99.90;9.50;100326.00;;;;5096947;28;20648;-62
2022/04/06 01:12:59;;;;;;;2.43;1.50;;;10.30;99.90;9.80;100286.00;;;;5112019;28;20208;-62
2022/04/06 01:15:26;;;;;;;0.57;0.57;;;10.30;99.90;9.90;100312.00;;;;5095891;28;20262;-62
2022/04/06 01:17:51;;;;;;;3.70;1.10;;;10.40;99.90;9.50;100281.00;;;;5113583;28;20628;-63
2022/04/06 01:20:17;;;;;;;1.90;1.47;;;10.30;99.90;9.30;100325.00;;;;5113415;28;20181;-63
2022/04/06 01:22:43;;;;;;;2.63;1.43;;;10.20;99.90;9.60;100325.00;;;;5113466;28;20180;-64
2022/04/06 01:25:09;;;;;;;2.93;1.80;;;10.20;99.90;9.70;100321.00;;;;5112833;28;20228;-63
2022/04/06 01:27:36;;;;;;;1.47;1.37;;;10.30;99.90;9.70;100296.00;;;;5113105;28;20196;-63
2022/04/06 01:30:03;;;;;;;1.13;1.07;;;10.40;99.90;9.70;100304.00;;;;5095417;28;20542;-63
2022/04/06 01:32:35;;;;;;;3.63;2.53;;;10.40;99.90;9.80;100303.00;;;;5112587;28;20581;-63
2022/04/06 01:35:03;;;;;;;3.33;2.33;;;10.40;99.90;9.60;100302.00;;;;5112128;28;20186;-64
2022/04/06 01:37:31;;;;;;;0.30;0.30;;;10.40;99.90;9.80;100309.00;;;;5112840;28;20185;-63
2022/04/06 01:39:57;;;;;;;0.60;0.60;;;10.40;99.90;9.90;100292.00;;;;5112886;28;20199;-63
2022/04/06 01:42:23;;;;;;;2.93;1.20;;;10.50;99.90;9.90;100290.00;;;;5094734;28;20713;-63
2022/04/06 01:44:50;;;;;;;0.40;0.40;;;10.50;99.90;9.50;100288.00;;;;5112663;28;20186;-63
2022/04/06 01:47:21;;;;;;;1.40;1.07;;;10.30;99.90;9.70;100283.00;;;;5112146;28;20178;-63
2022/04/06 01:52:34;;;;;;;1.23;1.13;;;10.30;99.90;9.70;100264.00;;;;5112762;28;20216;-63
2022/04/06 01:55:04;;;;;;;4.53;1.90;;;10.30;99.90;9.80;100295.00;;;;5095406;28;20522;-63
2022/04/06 01:57:32;;;;;;;1.57;0.60;;;10.40;99.90;9.80;100268.00;;;;5113073;28;20172;-63
2022/04/06 01:59:58;;;;;;;7.10;2.00;;;10.40;99.90;9.70;100286.00;;;;5111923;28;20190;-63
2022/04/06 02:02:30;;;;;;;1.07;0.83;;;10.30;99.90;9.60;100249.00;;;;5095797;28;20282;-64
2022/04/06 02:05:00;;;;;;;1.03;1.00;;;10.40;99.90;9.70;100276.00;;;;5112442;28;20535;-63
2022/04/06 02:07:27;;;;;;;0.43;0.43;;;10.40;99.90;9.60;100288.00;;;;5111301;28;20174;-63
2022/04/06 02:09:53;;;;;;;1.07;0.60;;;10.30;99.90;9.50;100269.00;;;;5111320;28;20200;-63
2022/04/06 02:12:22;;;;;;;0.37;0.37;;;10.30;99.90;9.70;100276.00;;;;5112804;28;20231;-63
2022/04/06 02:14:49;;;;;;;0.40;0.40;;;10.30;99.90;9.90;100273.00;;;;5112398;28;20195;-65
2022/04/06 02:17:15;;;;;;;1.10;1.07;;;10.40;99.90;9.50;100272.00;;;;5095120;28;20197;-64
2022/04/06 02:19:44;;;;;;;0.30;0.30;;;10.40;99.90;9.50;100268.00;;;;5094589;28;20634;-63
2022/04/06 02:22:18;;;;;;;0.40;0.40;;;10.30;99.90;9.60;100276.00;;;;5112426;28;20176;-64
2022/04/06 02:24:44;;;;;;;0.40;0.40;;;10.30;99.90;9.60;100235.00;;;;5110379;28;20177;-64
2022/04/06 02:27:13;;;;;;;0.30;0.30;;;10.30;99.90;9.80;100234.00;;;;5094764;28;20176;-63
2022/04/06 02:29:45;;;;;;;0.60;0.60;;;10.40;99.90;9.70;100263.00;;;;5112701;28;20215;-63
2022/04/06 02:32:11;;;;;;;0.97;0.97;;;10.30;99.90;10.00;100263.00;;;;5094407;28;20278;-65
2022/04/06 02:34:37;;;;;;;0.77;0.67;;;10.40;99.90;10.10;100268.00;;;;5112479;28;20184;-63
2022/04/06 02:37:04;;;;;;;0.60;0.60;;;10.50;99.90;9.90;100221.00;;;;5093817;28;20193;-63
2022/04/06 02:39:30;;;;;;;0.40;0.40;;;10.40;99.90;9.60;100265.00;;;;5095160;28;20269;-63
2022/04/06 02:41:56;;;;;;;0.40;0.40;;;10.30;99.90;9.80;100250.00;;;;5111922;28;20187;-63
2022/04/06 02:44:22;;;;;;;0.50;0.50;;;10.40;99.90;10.30;100262.00;;;;5111908;28;20182;-63
2022/04/06 02:46:48;;;;;;;0.70;0.70;;;10.60;99.90;10.10;100251.00;;;;5112432;28;20209;-63
2022/04/06 02:49:16;;;;;;;0.50;0.50;;;10.60;99.90;9.80;100260.00;;;;5095322;28;20280;-63
2022/04/06 02:51:47;;;;;;;1.80;0.50;;;10.50;99.90;9.70;100268.00;;;;5111903;28;20721;-62
2022/04/06 02:54:16;;;;;;;1.67;1.57;;;10.30;99.90;9.60;100276.00;;;;5113124;28;20521;-63
2022/04/06 02:56:43;;;;;;;1.47;1.37;;;10.20;99.90;9.60;100265.00;;;;5111581;28;20182;-63
2022/04/06 02:59:14;;;;;;;1.37;0.60;;;10.30;99.90;9.80;100260.00;;;;5113843;28;20179;-64
2022/04/06 03:01:39;;;;;;;0.80;0.80;;;10.30;99.90;9.60;100257.00;;;;5095888;28;20182;-63
2022/04/06 03:04:05;;;;;;;5.97;1.80;;;10.20;99.90;9.60;100235.00;;;;5112139;28;20551;-63
2022/04/06 03:06:31;;;;;;;1.23;1.13;;;10.20;99.90;9.60;100259.00;;;;5111795;28;20672;-64
2022/04/06 03:08:57;;;;;;;2.00;1.90;;;10.20;99.90;9.50;100252.00;;;;5111480;28;20192;-65
2022/04/06 03:11:23;;;;;;;0.90;0.80;;;10.20;99.90;9.40;100218.00;;;;5112035;28;20210;-63
2022/04/06 03:13:50;;;;;;;1.07;0.80;;;10.10;99.90;9.60;100245.00;;;;5094841;28;20221;-63
2022/04/06 03:16:16;;;;;;;0.63;0.63;;;10.20;99.90;9.40;100251.00;;;;5111733;28;20178;-63
2022/04/06 03:18:43;;;;;;;6.37;2.50;;;10.10;99.90;9.80;100237.00;;;;5112142;28;20160;-64
2022/04/06 03:21:08;;;;;;;0.50;0.50;;;10.20;99.90;10.10;100246.00;;;;5115575;28;20229;-65
2022/04/06 03:23:34;;;;;;;0.60;0.60;;;10.30;99.90;10.10;100255.00;;;;5098715;28;20267;-63
2022/04/06 03:26:00;;;;;;;0.50;0.50;;;10.50;99.90;10.10;100231.00;;;;5115453;28;20220;-63
2022/04/06 03:28:26;;;;;;;1.07;0.97;;;10.50;99.90;10.10;100253.00;;;;5098529;28;20710;-63
2022/04/06 03:30:54;;;;;;;1.47;0.57;;;10.50;99.90;9.70;100209.00;;;;5115622;28;20292;-63
2022/04/06 03:33:20;;;;;;;4.83;2.23;;;10.30;99.90;9.70;100251.00;;;;5115751;28;20586;-63
2022/04/06 03:35:46;;;;;;;0.73;0.73;;;10.20;99.90;9.40;100257.00;;;;5097886;28;20176;-63
2022/04/06 03:38:14;;;;;;;1.40;1.00;;;10.10;99.90;9.60;100245.00;;;;5114933;28;20181;-63
2022/04/06 03:40:40;;;;;;;0.60;0.60;;;10.20;99.90;10.10;100246.00;;;;5097952;28;20177;-63
2022/04/06 03:43:06;;;;;;;1.80;1.70;;;10.30;99.90;10.30;100233.00;;;;5114581;28;20176;-63
2022/04/06 03:45:32;;;;;;;12.53;1.53;;;10.50;99.90;9.80;100234.00;;;;5113711;28;20185;-63
2022/04/06 03:48:01;;;;;;;0.60;0.60;;;10.40;99.90;9.90;100236.00;;;;5097984;28;20397;-63
2022/04/06 03:50:30;;;;;;;1.73;0.60;;;10.30;99.90;9.70;100226.00;;;;5116713;28;20536;-63
2022/04/06 03:52:58;;;;;;;5.10;1.73;;;10.30;99.90;9.30;100230.00;;;;5114925;28;20195;-63
2022/04/06 03:55:24;;;;;;;5.83;1.47;;;10.10;99.90;9.30;100227.00;;;;5115220;28;20545;-63
2022/04/06 03:57:50;;;;;;;4.80;1.43;;;10.00;99.90;9.80;100218.00;;;;5115546;28;20657;-64
2022/04/06 04:00:17;;;;;;;7.50;1.87;;;10.20;99.90;9.70;100222.00;;;;5115298;28;20178;-63
2022/04/06 04:02:44;;;;;;;4.10;0.97;;;10.30;99.90;9.30;100227.00;;;;5113877;28;20192;-63
2022/04/06 04:05:12;;;;;;;1.03;0.80;;;10.10;99.90;9.50;100210.00;;;;5115563;28;20178;-63
2022/04/06 04:07:39;;;;;;;2.90;0.97;;;10.10;99.90;9.40;100211.00;;;;5115297;28;20222;-63
2022/04/06 04:10:09;;;;;;;0.40;0.40;;;10.10;99.90;9.80;100165.00;;;;5098181;28;20186;-63
2022/04/06 04:12:38;;;;;;;5.57;1.93;;;10.20;99.90;9.50;100203.00;;;;5096601;28;20679;-65
2022/04/06 04:15:05;;;;;;;4.33;1.43;;;10.10;99.90;9.50;100187.00;;;;5115274;28;20255;-64
2022/04/06 04:17:31;;;;;;;1.07;1.07;;;10.10;99.90;9.40;100194.00;;;;5114655;28;20191;-63
2022/04/06 04:20:00;;;;;;;5.80;2.53;;;10.10;99.90;9.80;100191.00;;;;5097023;28;20194;-64
2022/04/06 04:22:26;;;;;;;15.03;1.73;;;10.20;99.90;9.90;100192.00;;;;5115105;28;20183;-63
2022/04/06 04:24:52;;;;;;;1.43;0.90;;;10.30;99.90;9.30;100178.00;;;;5114988;28;20179;-63
2022/04/06 04:27:18;;;;;;;0.40;0.40;;;10.10;99.90;9.30;100177.00;;;;5114681;28;20256;-63
2022/04/06 04:29:44;;;;;;;6.37;1.73;;;10.10;99.90;9.50;100178.00;;;;5114479;28;20649;-63
2022/04/06 04:32:10;;;;;;;0.57;0.57;;;10.10;99.90;9.60;100133.00;;;;5097004;28;20321;-64
2022/04/06 04:34:37;;;;;;;2.27;1.23;;;10.20;99.90;9.60;100170.00;;;;5112927;28;20189;-63
2022/04/06 04:37:03;;;;;;;0.90;0.83;;;10.30;99.90;9.40;100165.00;;;;5097463;28;20651;-63
2022/04/06 04:39:32;;;;;;;2.93;1.43;;;10.20;99.90;9.30;100162.00;;;;5114856;28;20645;-63
2022/04/06 04:41:58;;;;;;;3.80;1.33;;;10.20;99.90;9.70;100171.00;;;;5114879;28;20182;-63
2022/04/06 04:44:24;;;;;;;1.23;1.03;;;10.30;99.90;9.50;100147.00;;;;5113707;28;20278;-63
2022/04/06 04:46:50;;;;;;;1.40;1.30;;;10.30;99.90;9.50;100149.00;;;;5112885;28;20221;-63
2022/04/06 04:49:18;;;;;;;0.40;0.40;;;10.30;99.90;9.30;100129.00;;;;5095581;28;20178;-63
2022/04/06 04:51:44;;;;;;;3.20;0.97;;;10.10;99.90;9.50;100155.00;;;;5114192;28;20246;-64
2022/04/06 04:54:10;;;;;;;0.57;0.57;;;10.20;99.90;9.30;100125.00;;;;5096168;28;20642;-64
2022/04/06 04:56:36;;;;;;;1.03;0.90;;;10.10;99.90;9.50;100102.00;;;;5114714;28;20636;-63
2022/04/06 04:59:02;;;;;;;2.30;0.97;;;10.20;99.90;9.40;100152.00;;;;5112556;28;20189;-63
2022/04/06 05:01:28;;;;;;;0.60;0.60;;;10.20;99.90;9.50;100138.00;;;;5113866;28;20186;-65
2022/04/06 05:03:54;;;;;;;0.83;0.67;;;10.20;99.90;9.40;100154.00;;;;5096670;28;20191;-64
2022/04/06 05:06:19;;;;;;;1.20;1.07;;;10.10;99.90;9.30;100130.00;;;;5113511;28;20280;-63
2022/04/06 05:08:47;;;;;;;1.30;1.20;;;10.20;99.90;9.50;100132.00;;;;5096654;28;20178;-64
2022/04/06 05:11:16;;;;;;;5.37;1.37;;;10.20;99.90;9.40;100128.00;;;;5098235;28;20182;-63
2022/04/06 05:13:42;;;;;;;0.60;0.50;;;10.20;99.90;9.30;100129.00;;;;5109263;28;20171;-63
2022/04/06 05:16:08;;;;;;;1.27;0.80;;;10.10;99.90;9.30;100111.00;;;;5109166;28;20197;-64
2022/04/06 05:18:34;;;;;;;0.80;0.80;;;10.10;99.90;9.30;100092.00;;;;5109552;28;20179;-63
2022/04/06 05:21:00;;;;;;;2.30;0.90;;;10.10;99.90;9.30;100123.00;;;;5110317;28;20178;-64
2022/04/06 05:23:26;;;;;;;2.03;1.00;;;10.10;99.90;9.30;100121.00;;;;5109105;28;20173;-64
2022/04/06 05:25:52;;;;;;;0.87;0.83;;;10.10;99.90;9.20;100130.00;;;;5110055;28;20572;-63
2022/04/06 05:28:18;;;;;;;2.40;0.60;;;10.10;99.90;9.30;100115.00;;;;5128488;27;20187;-64
2022/04/06 05:30:46;;;;;;;0.50;0.50;;;10.10;99.90;9.50;100120.00;;;;5112519;28;20746;-64
2022/04/06 05:33:13;;;;;;;0.40;0.40;;;10.20;99.90;9.40;100116.00;;;;5112190;28;20210;-64
2022/04/06 05:35:41;;;;;;;0.80;0.80;;;10.10;99.90;9.40;100123.00;;;;5113749;28;20170;-64
2022/04/06 05:38:08;;;;;;;7.40;1.37;;;10.20;99.90;9.30;100074.00;;;;5113541;28;20173;-64
2022/04/06 05:40:35;;;;;;;1.33;0.70;;;10.10;99.90;9.40;100114.00;;;;5113088;28;20213;-63
2022/04/06 05:43:02;;;;;;;4.70;1.03;;;10.10;99.90;9.20;100114.00;;;;5095684;28;20187;-64
2022/04/06 05:45:27;;;;;;;0.40;0.40;;;10.10;99.90;9.50;100106.00;;;;5112259;28;20179;-64
2022/04/06 05:47:54;;;;;;;0.93;0.93;;;10.20;99.90;9.40;100105.00;;;;5111447;28;20323;-64
2022/04/06 05:50:23;;;;;;;2.97;1.33;;;10.20;99.90;9.60;100110.00;;;;5112963;28;20163;-64
2022/04/06 05:52:48;;;;;;;0.77;0.77;;;10.20;99.90;9.80;100095.00;;;;5113443;28;20204;-64
2022/04/06 05:55:15;;;;;;;0.50;0.50;;;10.40;99.90;9.70;100097.00;;;;5111972;28;20197;-64
2022/04/06 05:57:41;;;;;;;1.27;1.27;;;10.30;99.90;9.60;100097.00;;;;5112008;28;20184;-64
2022/04/06 06:00:08;;;;;;;0.30;0.30;;;10.30;99.90;9.70;100105.00;;;;5112851;28;20180;-65
2022/04/06 06:02:35;;;;;;;0.50;0.50;;;10.30;99.90;10.40;100110.00;;;;5111985;28;20202;-64
2022/04/06 06:05:02;;;;;;;0.50;0.50;;;10.60;99.90;10.00;100102.00;;;;5112803;28;20642;-64
2022/04/06 06:07:28;;;;;;;0.50;0.50;;;10.60;99.90;10.00;100087.00;;;;5112747;28;20232;-64
2022/04/06 06:09:54;;;;;;;0.60;0.60;;;10.60;99.90;9.80;100106.00;;;;5112586;28;20198;-64
2022/04/06 06:12:20;;;;;;;0.50;0.50;;;10.50;99.90;9.80;100106.00;;;;5112052;28;20197;-64
2022/04/06 06:14:46;;;;;;;4.97;2.47;;;10.50;99.90;10.30;100079.00;;;;5112779;28;20642;-64
2022/04/06 06:17:14;;;;;;;0.40;0.40;;;10.60;99.90;10.10;100077.00;;;;5112626;28;20180;-63
2022/04/06 06:19:40;;;;;;;1.17;1.10;;;10.50;99.90;10.10;100101.00;;;;5111975;28;20191;-63
2022/04/06 06:22:06;;;;;;;0.40;0.40;;;10.60;99.90;9.80;100109.00;;;;5113585;28;20186;-64
2022/04/06 06:24:32;;;;;;;0.47;0.47;;;10.50;99.90;9.90;100103.00;;;;5094111;28;20732;-63
2022/04/06 06:26:58;;;;;;;0.53;0.53;;;10.50;99.90;9.70;100109.00;;;;5112686;28;20261;-64
2022/04/06 06:29:24;;;;;;;2.40;1.17;;;10.50;99.90;10.00;100110.00;;;;5112356;28;20186;-64
2022/04/06 06:31:50;;;;;;;0.70;0.50;;;10.60;99.90;9.70;100108.00;;;;5111749;28;20200;-64
2022/04/06 06:34:16;;;;;;;0.40;0.40;;;10.40;99.90;9.60;100107.00;;;;5112632;28;20230;-63
2022/04/06 06:36:42;;;;;;;1.57;0.93;;;10.40;99.90;10.30;100098.00;;;;5111251;28;20687;-64
2022/04/06 06:39:11;;;;;;;2.00;0.60;;;10.60;99.90;10.00;100064.00;;;;5112019;28;20189;-63
2022/04/06 06:41:41;;;;;;;0.90;0.80;;;10.60;99.90;9.80;100097.00;;;;5111877;28;20184;-63
2022/04/06 06:44:15;;;;;;;0.93;0.60;;;10.50;99.90;9.50;100103.00;;;;5113736;28;20558;-63
2022/04/06 06:46:47;;;;;;;0.60;0.60;;;10.40;99.90;9.50;100090.00;;;;5111574;28;20195;-64
2022/04/06 06:49:15;;;;;;;1.87;1.03;;;10.30;99.90;9.50;100068.00;;;;5112237;28;20178;-64
2022/04/06 06:51:42;;;;;;;0.60;0.60;;;10.30;99.90;9.50;100107.00;;;;5112085;28;20191;-65
2022/04/06 06:54:08;;;;;;;0.70;0.70;;;10.20;99.90;9.60;100101.00;;;;5114098;28;20546;-64
2022/04/06 06:56:39;;;;;;;0.70;0.70;;;10.30;99.90;9.50;100099.00;;;;5116644;28;20657;-65
2022/04/06 06:59:13;;;;;;;4.10;1.77;;;10.30;99.90;9.50;100104.00;;;;5116385;28;20194;-65
2022/04/06 07:01:39;;;;;;;1.27;1.17;;;10.30;99.90;9.50;100105.00;;;;5095814;28;20173;-65
2022/04/06 07:04:04;;;;;;;1.63;0.90;;;10.30;99.90;9.60;100105.00;;;;5108212;28;20206;-65
2022/04/06 07:06:30;;;;;;;1.83;1.07;;;10.30;99.90;9.60;100101.00;;;;5095745;28;20184;-65
2022/04/06 07:08:58;;;;;;;0.50;0.50;;;10.30;99.90;9.80;100104.00;;;;5113301;28;20260;-65
2022/04/06 07:11:30;;;;;;;8.90;1.67;;;10.40;99.90;9.60;100073.00;;;;5089794;28;20287;-65
2022/04/06 07:14:04;;;;;;;2.13;0.83;;;10.40;99.90;9.80;100086.00;;;;5097291;28;20202;-64
2022/04/06 07:16:36;;;;;;;0.50;0.50;;;10.50;99.90;10.50;100098.00;;;;5115985;28;20175;-65
2022/04/06 07:19:02;;;;;;;0.40;0.40;;;10.80;99.90;10.60;100044.00;;;;5115916;28;20528;-65
2022/04/06 07:21:36;;;;;;;4.07;1.10;;;11.00;99.90;9.90;100093.00;;;;5116231;28;20176;-65
2022/04/06 07:24:07;;;;;;;1.60;0.70;;;10.80;99.90;9.90;100097.00;;;;5104227;28;20535;-65
2022/04/06 07:26:38;;;;;;;0.70;0.70;;;10.70;99.90;9.90;100087.00;;;;5087037;28;20642;-65
2022/04/06 07:29:15;;;;;;;1.30;0.80;;;10.70;99.90;10.30;100085.00;;;;5078323;28;20193;-65
2022/04/06 07:31:46;;;;;;;3.30;1.53;;;10.90;99.90;10.10;100089.00;;;;5095107;28;20192;-65
2022/04/06 07:34:12;;;;;;;0.50;0.50;;;10.90;99.90;10.30;100037.00;;;;5088743;28;20206;-65
2022/04/06 07:36:41;;;;;;;0.40;0.40;;;10.90;99.90;10.40;100078.00;;;;5113549;28;20282;-65
2022/04/06 07:39:12;;;;;;;1.60;0.73;;;10.90;99.90;10.60;100069.00;;;;5116279;28;20179;-65
2022/04/06 07:41:43;;;;;;;1.00;0.90;;;11.00;99.90;10.60;100075.00;;;;5092692;28;20189;-65
2022/04/06 07:44:09;;;;;;;2.40;2.20;;;11.20;99.90;10.30;100063.00;;;;5095030;28;20181;-66
2022/04/06 07:46:35;;;;;;;0.50;0.50;;;11.00;99.90;10.30;100054.00;;;;5078136;28;20752;-65
2022/04/06 07:49:01;;;;;;;2.63;0.77;;;11.10;99.90;10.40;100062.00;;;;5075117;28;20187;-65
2022/04/06 07:51:27;;;;;;;1.80;0.90;;;11.10;99.90;10.10;100056.00;;;;5089573;28;20208;-65
2022/04/06 07:53:54;;;;;;;0.50;0.50;;;10.90;99.90;9.90;100064.00;;;;5093417;28;20180;-65
2022/04/06 07:56:25;;;;;;;0.50;0.50;;;10.70;99.90;10.00;100062.00;;;;5093293;28;20527;-65
2022/04/06 07:58:51;;;;;;;0.30;0.30;;;10.70;99.90;10.00;100051.00;;;;5107848;28;20209;-65
2022/04/06 08:01:22;;;;;;;0.70;0.70;;;10.70;99.90;10.20;100058.00;;;;5114762;28;20211;-65
2022/04/06 08:03:48;;;;;;;0.50;0.50;;;10.90;99.90;10.80;100065.00;;;;5115525;28;20184;-65
2022/04/06 08:06:14;;;;;;;0.50;0.50;;;11.10;99.90;10.90;100052.00;;;;5096945;28;20237;-65
2022/04/06 08:08:42;;;;;;;0.67;0.67;;;11.20;99.90;10.70;100059.00;;;;5112969;28;20223;-65
2022/04/06 08:11:08;;;;;;;0.40;0.40;;;11.20;99.90;10.30;100057.00;;;;5113869;28;20183;-64
2022/04/06 08:13:37;;;;;;;3.93;3.60;;;11.00;99.90;10.60;100027.00;;;;5115118;28;20176;-65
2022/04/06 08:16:06;;;;;;;0.80;0.80;;;11.00;99.90;9.90;100063.00;;;;5113900;28;20201;-64
2022/04/06 08:18:31;;;;;;;0.60;0.60;;;10.80;99.90;9.80;100061.00;;;;5103142;28;20192;-64
2022/04/06 08:20:59;;;;;;;0.40;0.40;;;10.60;99.90;10.20;100066.00;;;;5081756;28;20181;-64
2022/04/06 08:23:33;;;;;;;0.40;0.40;;;10.70;99.90;10.30;100064.00;;;;5093804;28;20169;-64
2022/04/06 08:25:58;;;;;;;0.63;0.63;;;10.90;99.90;10.70;100059.00;;;;5111710;28;20217;-64
2022/04/06 08:28:24;;;;;;;0.50;0.50;;;11.10;99.90;10.50;100055.00;;;;5095219;28;20273;-64
2022/04/06 08:30:50;;;;;;;0.70;0.70;;;11.10;99.90;10.80;100055.00;;;;5094266;28;20194;-64
2022/04/06 08:33:24;;;;;;;0.73;0.73;;;11.20;99.90;10.40;100042.00;;;;5093627;28;20223;-64
2022/04/06 08:35:55;;;;;;;0.40;0.40;;;11.00;99.90;10.50;100027.00;;;;5111010;28;20181;-64
2022/04/06 08:38:24;;;;;;;0.50;0.50;;;11.00;99.90;10.80;100011.00;;;;5093860;28;20182;-64
2022/04/06 08:40:50;;;;;;;0.50;0.50;;;11.20;99.90;11.10;100046.00;;;;5093329;28;20212;-64
2022/04/06 08:43:17;;;;;;;6.03;0.90;;;11.40;99.90;10.50;100057.00;;;;5093740;28;20213;-64
2022/04/06 08:45:44;;;;;;;0.60;0.60;;;11.10;99.90;10.30;100021.00;;;;5111437;28;20159;-64
2022/04/06 08:48:11;;;;;;;0.43;0.43;;;11.00;99.90;11.00;100050.00;;;;5093912;28;20620;-64
2022/04/06 08:50:41;;;;;;;0.50;0.50;;;11.20;99.90;10.70;100023.00;;;;5103225;28;20276;-64
2022/04/06 08:53:13;;;;;;;0.50;0.50;;;11.20;99.90;10.60;100062.00;;;;5093380;28;20206;-64
2022/04/06 08:55:47;;;;;;;2.67;2.30;;;11.20;99.90;10.50;100051.00;;;;5094085;28;20159;-64
2022/04/06 08:58:16;;;;;;;0.63;0.63;;;11.10;99.90;10.90;100053.00;;;;5094141;28;20230;-64
2022/04/06 09:00:42;;;;;;;0.70;0.70;;;11.30;99.90;10.60;100047.00;;;;5093782;28;20197;-64
2022/04/06 09:03:10;;;;;;;0.63;0.63;;;11.20;99.90;10.00;100063.00;;;;5099762;28;20244;-64
2022/04/06 09:05:37;;;;;;;0.50;0.50;;;10.90;99.90;10.60;100051.00;;;;5113187;28;20666;-64
2022/04/06 09:08:05;;;;;;;1.30;1.20;;;11.00;99.90;10.60;100061.00;;;;5088496;28;20247;-63
2022/04/06 09:10:36;;;;;;;0.70;0.70;;;11.00;99.90;10.70;100048.00;;;;5096603;28;20182;-64
2022/04/06 09:13:20;;;;;;;0.60;0.60;;;11.10;99.90;10.70;100052.00;;;;5113532;28;20203;-65
2022/04/06 09:15:47;;;;;;;3.30;1.43;;;11.10;99.90;10.40;100058.00;;;;5112858;28;20232;-64
2022/04/06 09:18:14;;;;;;;0.60;0.60;;;11.00;99.90;10.70;100028.00;;;;5113814;28;20200;-65
2022/04/06 09:20:40;;;;;;;3.03;1.17;;;11.00;99.90;10.70;100060.00;;;;5113646;28;20180;-64
2022/04/06 09:23:14;;;;;;;0.60;0.60;;;11.10;99.90;10.20;100059.00;;;;5113612;28;20267;-65
2022/04/06 09:25:43;;;;;;;0.57;0.57;;;10.90;99.90;10.30;100062.00;;;;5113329;28;20182;-65
2022/04/06 09:28:12;;;;;;;0.60;0.60;;;10.90;99.90;10.50;100067.00;;;;5113497;28;20204;-66
2022/04/06 09:30:46;;;;;;;0.60;0.60;;;10.90;99.90;10.90;100068.00;;;;5103632;28;20186;-65
2022/04/06 09:33:18;;;;;;;0.90;0.90;;;11.10;99.90;11.10;100070.00;;;;5094333;28;20226;-66
2022/04/06 09:35:44;;;;;;;0.60;0.60;;;11.20;99.90;10.60;100064.00;;;;5091855;28;20189;-69
2022/04/06 09:38:27;;;;;;;3.40;1.63;;;11.20;99.90;10.40;100060.00;;;;5090055;28;20577;-76
2022/04/06 09:41:06;;;;;;;0.50;0.50;;;11.00;99.90;10.40;100058.00;;;;5072770;28;20264;-82
2022/04/06 09:43:37;;;;;;;0.50;0.50;;;10.90;99.90;10.60;100058.00;;;;5091045;28;20421;-74
2022/04/06 09:49:26;;;;;;;0.50;0.50;;;11.10;99.90;10.40;100013.00;;;;5090622;28;20183;-66
2022/04/06 09:51:52;;;;;;;1.70;1.53;;;11.00;99.90;10.70;100004.00;;;;5072920;28;20204;-63
2022/04/06 09:54:19;;;;;;;1.00;1.00;;;11.10;99.90;10.60;100006.00;;;;5091024;28;20200;-64
2022/04/06 09:56:46;;;;;;;1.23;0.67;;;11.10;99.90;10.80;100037.00;;;;5090842;28;20497;-63
2022/04/06 09:59:14;;;;;;;0.50;0.50;;;11.20;99.90;11.00;100032.00;;;;5090569;28;20272;-63
2022/04/06 10:01:47;;;;;;;0.50;0.50;;;11.40;99.90;10.80;100035.00;;;;5072616;28;20190;-66
2022/04/06 10:04:17;;;;;;;0.60;0.60;;;11.40;99.90;11.10;100038.00;;;;5073461;28;20263;-65
2022/04/06 10:06:44;;;;;;;0.70;0.70;;;11.40;99.90;11.00;100027.00;;;;5089060;28;20180;-66
2022/04/06 10:09:14;;;;;;;0.80;0.80;;;11.40;99.90;11.10;100019.00;;;;5074057;28;20224;-67
2022/04/06 10:11:41;;;;;;;0.97;0.97;;;11.60;99.90;11.10;100022.00;;;;5073308;28;20250;-66
2022/04/06 10:14:09;;;;;;;0.77;0.77;;;11.60;99.90;11.40;99984.00;;;;5073069;28;20177;-66
2022/04/06 10:16:36;;;;;;;0.80;0.80;;;11.70;99.90;11.50;100024.00;;;;5090551;28;20627;-66
2022/04/06 10:19:07;;;;;;;0.77;0.77;;;11.90;99.90;11.20;99990.00;;;;5091400;28;20660;-69
2022/04/06 10:33:23;;;;;;;0.60;0.60;;;11.20;99.90;10.40;100016.00;;;;5112722;27;1307120;-67
2022/04/06 10:36:20;;;;;;;0.50;0.50;;;11.20;99.90;10.90;100018.00;;;;5113664;28;20185;-67
2022/04/06 10:39:07;;;;;;;3.97;1.37;;;11.30;99.90;10.50;100011.00;;;;5130085;28;20213;-67
2022/04/06 10:42:14;;;;;;;3.40;1.10;;;11.20;99.90;10.60;100010.00;;;;5129043;28;20515;-67
2022/04/06 10:44:48;;;;;;;0.63;0.63;;;11.10;99.90;11.00;100016.00;;;;5130347;27;20167;-67
2022/04/06 10:47:22;;;;;;;0.50;0.50;;;11.30;99.90;11.00;100002.00;;;;5113219;28;20548;-67
2022/04/06 10:50:13;;;;;;;0.50;0.50;;;11.40;99.90;11.00;99985.00;;;;5112954;28;20527;-67
2022/04/06 10:52:44;;;;;;;0.50;0.50;;;11.50;99.90;11.10;100001.00;;;;5129875;28;20217;-68
2022/04/06 10:55:20;;;;;;;1.17;1.17;;;11.60;99.90;10.60;99990.00;;;;5112786;28;20642;-67
2022/04/06 10:58:03;;;;;;;0.50;0.50;;;11.40;99.90;11.00;99998.00;;;;5112624;28;20192;-66
2022/04/06 11:00:39;;;;;;;0.50;0.50;;;11.50;99.90;11.40;99984.00;;;;5113021;28;20194;-67
2022/04/06 11:03:18;;;;;;;3.13;2.30;;;11.70;99.90;11.20;99987.00;;;;5129742;28;20220;-67
2022/04/06 11:05:50;;;;;;;1.10;1.10;;;11.70;99.90;11.10;99983.00;;;;5128188;28;20187;-67
2022/04/06 11:11:45;;;;;;;1.20;1.20;;;11.60;99.90;10.90;99984.00;;;;5130184;28;20245;-66
2022/04/06 11:14:29;;;;;;;1.03;1.03;;;11.40;99.90;10.70;99979.00;;;;5111932;28;20232;-67
2022/04/06 11:17:00;;;;;;;0.80;0.80;;;11.50;99.90;10.90;99971.00;;;;5129475;28;20203;-67
2022/04/06 11:19:34;;;;;;;0.73;0.73;;;11.50;99.90;11.60;99972.00;;;;5112391;28;20608;-67